sensor_id;sensor_type;location;lat;lon;timestamp;P1;durP1;ratioP1;P2;durP2;ratioP2
19521;SDS011;9905;52.126;5.596;2022-09-16T00:01:52;3.05;;;2.30;;
19521;SDS011;9905;52.126;5.596;2022-09-16T00:04:18;2.55;;;2.42;;
19521;SDS011;9905;52.126;5.596;2022-09-16T00:06:46;3.15;;;2.30;;
19521;SDS011;9905;52.126;5.596;2022-09-16T00:09:13;2.22;;;2.10;;
19521;SDS011;9905;52.126;5.596;2022-09-16T00:11:40;2.85;;;2.20;;
19521;SDS011;9905;52.126;5.596;2022-09-16T00:14:07;2.95;;;2.03;;
19521;SDS011;9905;52.126;5.596;2022-09-16T00:16:35;2.60;;;2.30;;
19521;SDS011;9905;52.126;5.596;2022-09-16T00:19:01;4.43;;;2.38;;
19521;SDS011;9905;52.126;5.596;2022-09-16T00:21:29;3.40;;;2.25;;
19521;SDS011;9905;52.126;5.596;2022-09-16T00:23:57;2.42;;;2.22;;
19521;SDS011;9905;52.126;5.596;2022-09-16T00:26:24;2.38;;;2.28;;
19521;SDS011;9905;52.126;5.596;2022-09-16T00:28:50;2.28;;;2.08;;
19521;SDS011;9905;52.126;5.596;2022-09-16T00:31:17;2.63;;;2.50;;
19521;SDS011;9905;52.126;5.596;2022-09-16T00:33:44;2.22;;;2.13;;
19521;SDS011;9905;52.126;5.596;2022-09-16T00:36:12;2.60;;;2.40;;
19521;SDS011;9905;52.126;5.596;2022-09-16T00:38:40;3.03;;;2.50;;
19521;SDS011;9905;52.126;5.596;2022-09-16T00:41:11;1.85;;;1.85;;
19521;SDS011;9905;52.126;5.596;2022-09-16T00:43:49;2.45;;;2.40;;
19521;SDS011;9905;52.126;5.596;2022-09-16T00:46:18;2.17;;;2.05;;
19521;SDS011;9905;52.126;5.596;2022-09-16T00:48:50;2.10;;;2.10;;
19521;SDS011;9905;52.126;5.596;2022-09-16T00:51:17;2.83;;;2.63;;
19521;SDS011;9905;52.126;5.596;2022-09-16T00:53:46;2.38;;;2.28;;
19521;SDS011;9905;52.126;5.596;2022-09-16T00:56:17;2.50;;;2.30;;
19521;SDS011;9905;52.126;5.596;2022-09-16T00:58:48;2.13;;;2.13;;
19521;SDS011;9905;52.126;5.596;2022-09-16T01:01:18;2.55;;;2.20;;
19521;SDS011;9905;52.126;5.596;2022-09-16T01:03:47;2.22;;;2.13;;
19521;SDS011;9905;52.126;5.596;2022-09-16T01:06:17;2.40;;;2.20;;
19521;SDS011;9905;52.126;5.596;2022-09-16T01:08:44;2.50;;;2.40;;
19521;SDS011;9905;52.126;5.596;2022-09-16T01:11:11;2.50;;;2.40;;
19521;SDS011;9905;52.126;5.596;2022-09-16T01:13:39;3.45;;;2.63;;
19521;SDS011;9905;52.126;5.596;2022-09-16T01:16:08;2.60;;;2.50;;
19521;SDS011;9905;52.126;5.596;2022-09-16T01:18:41;2.40;;;2.38;;
19521;SDS011;9905;52.126;5.596;2022-09-16T01:21:16;2.47;;;2.33;;
19521;SDS011;9905;52.126;5.596;2022-09-16T01:24:00;2.58;;;2.38;;
19521;SDS011;9905;52.126;5.596;2022-09-16T01:32:34;2.35;;;2.30;;
19521;SDS011;9905;52.126;5.596;2022-09-16T01:35:09;2.97;;;2.55;;
19521;SDS011;9905;52.126;5.596;2022-09-16T01:37:42;2.33;;;2.22;;
19521;SDS011;9905;52.126;5.596;2022-09-16T01:40:15;3.60;;;2.38;;
19521;SDS011;9905;52.126;5.596;2022-09-16T01:42:53;2.72;;;2.63;;
19521;SDS011;9905;52.126;5.596;2022-09-16T01:45:29;2.30;;;2.20;;
19521;SDS011;9905;52.126;5.596;2022-09-16T01:48:06;2.80;;;2.60;;
19521;SDS011;9905;52.126;5.596;2022-09-16T01:50:37;2.58;;;2.47;;
19521;SDS011;9905;52.126;5.596;2022-09-16T01:53:09;2.63;;;2.33;;
19521;SDS011;9905;52.126;5.596;2022-09-16T01:55:42;2.97;;;2.88;;
19521;SDS011;9905;52.126;5.596;2022-09-16T01:58:16;2.90;;;2.70;;
19521;SDS011;9905;52.126;5.596;2022-09-16T02:00:49;2.60;;;2.50;;
19521;SDS011;9905;52.126;5.596;2022-09-16T02:03:21;3.22;;;2.63;;
19521;SDS011;9905;52.126;5.596;2022-09-16T02:05:51;2.40;;;2.25;;
19521;SDS011;9905;52.126;5.596;2022-09-16T02:08:21;3.22;;;2.90;;
19521;SDS011;9905;52.126;5.596;2022-09-16T02:10:53;2.88;;;2.67;;
19521;SDS011;9905;52.126;5.596;2022-09-16T02:13:24;2.50;;;2.33;;
19521;SDS011;9905;52.126;5.596;2022-09-16T02:15:55;2.45;;;2.35;;
19521;SDS011;9905;52.126;5.596;2022-09-16T02:18:28;2.40;;;2.30;;
19521;SDS011;9905;52.126;5.596;2022-09-16T02:20:58;2.25;;;2.15;;
19521;SDS011;9905;52.126;5.596;2022-09-16T02:23:28;2.15;;;2.05;;
19521;SDS011;9905;52.126;5.596;2022-09-16T02:25:57;3.15;;;3.00;;
19521;SDS011;9905;52.126;5.596;2022-09-16T02:28:26;3.88;;;2.70;;
19521;SDS011;9905;52.126;5.596;2022-09-16T02:30:58;2.40;;;2.30;;
19521;SDS011;9905;52.126;5.596;2022-09-16T02:33:30;2.78;;;2.50;;
19521;SDS011;9905;52.126;5.596;2022-09-16T02:36:01;2.38;;;2.28;;
19521;SDS011;9905;52.126;5.596;2022-09-16T02:38:31;2.53;;;2.42;;
19521;SDS011;9905;52.126;5.596;2022-09-16T02:41:05;2.55;;;2.40;;
19521;SDS011;9905;52.126;5.596;2022-09-16T02:43:33;2.67;;;2.58;;
19521;SDS011;9905;52.126;5.596;2022-09-16T02:46:03;3.72;;;2.47;;
19521;SDS011;9905;52.126;5.596;2022-09-16T02:48:37;2.40;;;2.30;;
19521;SDS011;9905;52.126;5.596;2022-09-16T02:51:14;2.40;;;2.30;;
19521;SDS011;9905;52.126;5.596;2022-09-16T02:53:48;3.33;;;2.40;;
19521;SDS011;9905;52.126;5.596;2022-09-16T02:56:19;2.55;;;2.35;;
19521;SDS011;9905;52.126;5.596;2022-09-16T02:58:49;2.50;;;2.38;;
19521;SDS011;9905;52.126;5.596;2022-09-16T03:01:16;2.80;;;2.60;;
19521;SDS011;9905;52.126;5.596;2022-09-16T03:03:45;3.25;;;2.72;;
19521;SDS011;9905;52.126;5.596;2022-09-16T03:06:13;2.65;;;2.47;;
19521;SDS011;9905;52.126;5.596;2022-09-16T03:08:45;2.63;;;2.53;;
19521;SDS011;9905;52.126;5.596;2022-09-16T03:11:19;3.00;;;2.70;;
19521;SDS011;9905;52.126;5.596;2022-09-16T03:14:10;2.60;;;2.50;;
19521;SDS011;9905;52.126;5.596;2022-09-16T03:16:54;3.42;;;2.67;;
19521;SDS011;9905;52.126;5.596;2022-09-16T03:19:33;2.85;;;2.78;;
19521;SDS011;9905;52.126;5.596;2022-09-16T03:22:05;3.00;;;2.70;;
19521;SDS011;9905;52.126;5.596;2022-09-16T03:24:41;2.90;;;2.80;;
19521;SDS011;9905;52.126;5.596;2022-09-16T03:27:17;3.08;;;2.88;;
19521;SDS011;9905;52.126;5.596;2022-09-16T03:29:48;2.75;;;2.65;;
19521;SDS011;9905;52.126;5.596;2022-09-16T03:32:20;3.47;;;3.17;;
19521;SDS011;9905;52.126;5.596;2022-09-16T03:34:50;2.90;;;2.80;;
19521;SDS011;9905;52.126;5.596;2022-09-16T03:37:20;2.83;;;2.72;;
19521;SDS011;9905;52.126;5.596;2022-09-16T03:39:49;2.80;;;2.60;;
19521;SDS011;9905;52.126;5.596;2022-09-16T03:42:18;2.78;;;2.58;;
19521;SDS011;9905;52.126;5.596;2022-09-16T03:44:45;2.47;;;2.38;;
19521;SDS011;9905;52.126;5.596;2022-09-16T03:47:13;2.88;;;2.72;;
19521;SDS011;9905;52.126;5.596;2022-09-16T03:49:40;3.20;;;3.10;;
19521;SDS011;9905;52.126;5.596;2022-09-16T03:52:08;3.30;;;3.10;;
19521;SDS011;9905;52.126;5.596;2022-09-16T03:54:35;3.03;;;2.83;;
19521;SDS011;9905;52.126;5.596;2022-09-16T03:57:02;3.40;;;3.28;;
19521;SDS011;9905;52.126;5.596;2022-09-16T03:59:30;3.28;;;3.15;;
19521;SDS011;9905;52.126;5.596;2022-09-16T04:01:57;3.40;;;3.20;;
19521;SDS011;9905;52.126;5.596;2022-09-16T04:04:23;2.95;;;2.80;;
19521;SDS011;9905;52.126;5.596;2022-09-16T04:06:50;3.20;;;3.05;;
19521;SDS011;9905;52.126;5.596;2022-09-16T04:09:18;3.25;;;3.05;;
19521;SDS011;9905;52.126;5.596;2022-09-16T04:11:45;3.58;;;3.38;;
19521;SDS011;9905;52.126;5.596;2022-09-16T04:14:11;2.92;;;2.83;;
19521;SDS011;9905;52.126;5.596;2022-09-16T04:16:38;3.22;;;3.13;;
19521;SDS011;9905;52.126;5.596;2022-09-16T04:19:05;3.30;;;3.05;;
19521;SDS011;9905;52.126;5.596;2022-09-16T04:21:32;2.65;;;2.60;;
19521;SDS011;9905;52.126;5.596;2022-09-16T04:23:59;4.63;;;3.00;;
19521;SDS011;9905;52.126;5.596;2022-09-16T04:26:27;3.22;;;3.03;;
19521;SDS011;9905;52.126;5.596;2022-09-16T04:28:54;2.75;;;2.65;;
19521;SDS011;9905;52.126;5.596;2022-09-16T04:31:21;3.00;;;2.90;;
19521;SDS011;9905;52.126;5.596;2022-09-16T04:33:47;3.35;;;2.78;;
19521;SDS011;9905;52.126;5.596;2022-09-16T04:36:15;2.83;;;2.70;;
19521;SDS011;9905;52.126;5.596;2022-09-16T04:38:43;2.92;;;2.70;;
19521;SDS011;9905;52.126;5.596;2022-09-16T04:41:12;3.08;;;2.97;;
19521;SDS011;9905;52.126;5.596;2022-09-16T04:43:41;3.08;;;3.00;;
19521;SDS011;9905;52.126;5.596;2022-09-16T04:46:08;3.25;;;3.13;;
19521;SDS011;9905;52.126;5.596;2022-09-16T04:48:35;2.90;;;2.70;;
19521;SDS011;9905;52.126;5.596;2022-09-16T04:51:03;2.70;;;2.60;;
19521;SDS011;9905;52.126;5.596;2022-09-16T04:53:32;2.97;;;2.88;;
19521;SDS011;9905;52.126;5.596;2022-09-16T04:56:03;3.22;;;2.97;;
19521;SDS011;9905;52.126;5.596;2022-09-16T04:58:30;3.08;;;2.90;;
19521;SDS011;9905;52.126;5.596;2022-09-16T05:01:03;4.32;;;2.95;;
19521;SDS011;9905;52.126;5.596;2022-09-16T05:03:31;3.90;;;3.55;;
19521;SDS011;9905;52.126;5.596;2022-09-16T05:06:04;3.85;;;3.65;;
19521;SDS011;9905;52.126;5.596;2022-09-16T05:08:35;3.25;;;3.05;;
19521;SDS011;9905;52.126;5.596;2022-09-16T05:11:03;3.13;;;2.88;;
19521;SDS011;9905;52.126;5.596;2022-09-16T05:13:33;3.25;;;3.03;;
19521;SDS011;9905;52.126;5.596;2022-09-16T05:16:01;3.38;;;3.28;;
19521;SDS011;9905;52.126;5.596;2022-09-16T05:18:31;4.15;;;3.85;;
19521;SDS011;9905;52.126;5.596;2022-09-16T05:20:58;3.15;;;2.95;;
19521;SDS011;9905;52.126;5.596;2022-09-16T05:23:25;3.47;;;3.10;;
19521;SDS011;9905;52.126;5.596;2022-09-16T05:25:53;3.00;;;2.90;;
19521;SDS011;9905;52.126;5.596;2022-09-16T05:28:20;3.25;;;3.05;;
19521;SDS011;9905;52.126;5.596;2022-09-16T05:30:47;2.95;;;2.85;;
19521;SDS011;9905;52.126;5.596;2022-09-16T05:33:15;3.20;;;2.95;;
19521;SDS011;9905;52.126;5.596;2022-09-16T05:35:42;2.63;;;2.53;;
19521;SDS011;9905;52.126;5.596;2022-09-16T05:38:10;2.67;;;2.50;;
19521;SDS011;9905;52.126;5.596;2022-09-16T05:40:37;2.30;;;2.30;;
19521;SDS011;9905;52.126;5.596;2022-09-16T05:43:03;2.90;;;2.80;;
19521;SDS011;9905;52.126;5.596;2022-09-16T05:45:30;3.47;;;2.80;;
19521;SDS011;9905;52.126;5.596;2022-09-16T05:47:57;3.67;;;3.45;;
19521;SDS011;9905;52.126;5.596;2022-09-16T05:50:25;3.33;;;2.90;;
19521;SDS011;9905;52.126;5.596;2022-09-16T05:52:51;3.10;;;2.90;;
19521;SDS011;9905;52.126;5.596;2022-09-16T05:55:18;3.00;;;2.90;;
19521;SDS011;9905;52.126;5.596;2022-09-16T05:57:45;3.00;;;2.80;;
19521;SDS011;9905;52.126;5.596;2022-09-16T06:00:12;3.05;;;2.95;;
19521;SDS011;9905;52.126;5.596;2022-09-16T06:02:39;3.15;;;3.05;;
19521;SDS011;9905;52.126;5.596;2022-09-16T06:05:06;3.45;;;3.08;;
19521;SDS011;9905;52.126;5.596;2022-09-16T06:07:34;3.15;;;3.05;;
19521;SDS011;9905;52.126;5.596;2022-09-16T06:10:02;3.17;;;3.08;;
19521;SDS011;9905;52.126;5.596;2022-09-16T06:12:29;4.22;;;3.85;;
19521;SDS011;9905;52.126;5.596;2022-09-16T06:14:56;4.07;;;3.80;;
19521;SDS011;9905;52.126;5.596;2022-09-16T06:17:22;3.30;;;3.20;;
19521;SDS011;9905;52.126;5.596;2022-09-16T06:19:49;3.50;;;3.35;;
19521;SDS011;9905;52.126;5.596;2022-09-16T06:22:16;4.63;;;3.55;;
19521;SDS011;9905;52.126;5.596;2022-09-16T06:24:44;3.20;;;3.10;;
19521;SDS011;9905;52.126;5.596;2022-09-16T06:27:11;3.50;;;3.40;;
19521;SDS011;9905;52.126;5.596;2022-09-16T06:29:38;3.20;;;3.10;;
19521;SDS011;9905;52.126;5.596;2022-09-16T06:32:05;3.55;;;3.40;;
19521;SDS011;9905;52.126;5.596;2022-09-16T06:34:32;3.03;;;2.92;;
19521;SDS011;9905;52.126;5.596;2022-09-16T06:36:58;3.25;;;3.10;;
19521;SDS011;9905;52.126;5.596;2022-09-16T06:39:25;3.50;;;3.30;;
19521;SDS011;9905;52.126;5.596;2022-09-16T06:41:53;4.05;;;3.72;;
19521;SDS011;9905;52.126;5.596;2022-09-16T06:44:20;3.53;;;3.40;;
19521;SDS011;9905;52.126;5.596;2022-09-16T06:46:47;3.90;;;3.70;;
19521;SDS011;9905;52.126;5.596;2022-09-16T06:49:14;3.63;;;3.50;;
19521;SDS011;9905;52.126;5.596;2022-09-16T06:51:40;3.40;;;3.30;;
19521;SDS011;9905;52.126;5.596;2022-09-16T06:54:07;3.53;;;3.20;;
19521;SDS011;9905;52.126;5.596;2022-09-16T06:56:36;3.78;;;3.58;;
19521;SDS011;9905;52.126;5.596;2022-09-16T06:59:06;3.10;;;3.00;;
19521;SDS011;9905;52.126;5.596;2022-09-16T07:01:34;2.97;;;2.88;;
19521;SDS011;9905;52.126;5.596;2022-09-16T07:04:02;7.85;;;3.10;;
19521;SDS011;9905;52.126;5.596;2022-09-16T07:06:30;3.22;;;3.00;;
19521;SDS011;9905;52.126;5.596;2022-09-16T07:08:57;3.58;;;2.95;;
19521;SDS011;9905;52.126;5.596;2022-09-16T07:11:24;2.72;;;2.60;;
19521;SDS011;9905;52.126;5.596;2022-09-16T07:13:51;2.72;;;2.60;;
19521;SDS011;9905;52.126;5.596;2022-09-16T07:16:20;3.20;;;2.83;;
19521;SDS011;9905;52.126;5.596;2022-09-16T07:18:51;2.70;;;2.50;;
19521;SDS011;9905;52.126;5.596;2022-09-16T07:21:18;3.00;;;2.67;;
19521;SDS011;9905;52.126;5.596;2022-09-16T07:23:46;2.70;;;2.50;;
19521;SDS011;9905;52.126;5.596;2022-09-16T07:26:14;2.78;;;2.58;;
19521;SDS011;9905;52.126;5.596;2022-09-16T07:28:42;2.42;;;2.35;;
19521;SDS011;9905;52.126;5.596;2022-09-16T07:31:12;2.75;;;2.55;;
19521;SDS011;9905;52.126;5.596;2022-09-16T07:33:43;2.78;;;2.58;;
19521;SDS011;9905;52.126;5.596;2022-09-16T07:36:12;4.72;;;2.55;;
19521;SDS011;9905;52.126;5.596;2022-09-16T07:38:39;2.65;;;2.55;;
19521;SDS011;9905;52.126;5.596;2022-09-16T07:41:07;2.90;;;2.70;;
19521;SDS011;9905;52.126;5.596;2022-09-16T07:43:35;2.90;;;2.65;;
19521;SDS011;9905;52.126;5.596;2022-09-16T07:46:02;3.10;;;2.90;;
19521;SDS011;9905;52.126;5.596;2022-09-16T07:48:29;2.50;;;2.40;;
19521;SDS011;9905;52.126;5.596;2022-09-16T07:50:58;2.80;;;2.70;;
19521;SDS011;9905;52.126;5.596;2022-09-16T07:53:26;2.55;;;2.45;;
19521;SDS011;9905;52.126;5.596;2022-09-16T07:55:55;2.90;;;2.60;;
19521;SDS011;9905;52.126;5.596;2022-09-16T07:58:22;2.65;;;2.38;;
19521;SDS011;9905;52.126;5.596;2022-09-16T08:00:48;2.78;;;2.58;;
19521;SDS011;9905;52.126;5.596;2022-09-16T08:03:15;2.28;;;2.15;;
19521;SDS011;9905;52.126;5.596;2022-09-16T08:05:42;2.00;;;1.90;;
19521;SDS011;9905;52.126;5.596;2022-09-16T08:08:10;2.65;;;2.50;;
19521;SDS011;9905;52.126;5.596;2022-09-16T08:10:37;1.95;;;1.80;;
19521;SDS011;9905;52.126;5.596;2022-09-16T08:13:04;2.03;;;1.90;;
19521;SDS011;9905;52.126;5.596;2022-09-16T08:15:32;2.45;;;1.92;;
19521;SDS011;9905;52.126;5.596;2022-09-16T08:17:59;2.10;;;2.00;;
19521;SDS011;9905;52.126;5.596;2022-09-16T08:20:26;2.25;;;2.15;;
19521;SDS011;9905;52.126;5.596;2022-09-16T08:22:52;2.05;;;1.95;;
19521;SDS011;9905;52.126;5.596;2022-09-16T08:25:21;1.70;;;1.70;;
19521;SDS011;9905;52.126;5.596;2022-09-16T08:27:47;2.08;;;2.00;;
19521;SDS011;9905;52.126;5.596;2022-09-16T08:30:14;1.50;;;1.50;;
19521;SDS011;9905;52.126;5.596;2022-09-16T08:32:41;1.70;;;1.60;;
19521;SDS011;9905;52.126;5.596;2022-09-16T08:35:07;1.75;;;1.65;;
19521;SDS011;9905;52.126;5.596;2022-09-16T08:37:34;1.50;;;1.50;;
19521;SDS011;9905;52.126;5.596;2022-09-16T08:40:01;1.60;;;1.50;;
19521;SDS011;9905;52.126;5.596;2022-09-16T08:42:31;1.70;;;1.60;;
19521;SDS011;9905;52.126;5.596;2022-09-16T08:45:17;3.22;;;1.90;;
19521;SDS011;9905;52.126;5.596;2022-09-16T08:47:56;1.90;;;1.80;;
19521;SDS011;9905;52.126;5.596;2022-09-16T08:50:34;1.65;;;1.55;;
19521;SDS011;9905;52.126;5.596;2022-09-16T08:53:08;3.60;;;1.83;;
19521;SDS011;9905;52.126;5.596;2022-09-16T08:55:39;1.70;;;1.70;;
19521;SDS011;9905;52.126;5.596;2022-09-16T08:58:13;1.73;;;1.63;;
19521;SDS011;9905;52.126;5.596;2022-09-16T09:00:42;2.88;;;1.58;;
19521;SDS011;9905;52.126;5.596;2022-09-16T09:03:13;1.50;;;1.50;;
19521;SDS011;9905;52.126;5.596;2022-09-16T09:05:46;1.40;;;1.40;;
19521;SDS011;9905;52.126;5.596;2022-09-16T09:08:20;1.90;;;1.80;;
19521;SDS011;9905;52.126;5.596;2022-09-16T09:10:55;1.40;;;1.40;;
19521;SDS011;9905;52.126;5.596;2022-09-16T09:13:30;2.15;;;2.03;;
19521;SDS011;9905;52.126;5.596;2022-09-16T09:16:06;1.50;;;1.50;;
19521;SDS011;9905;52.126;5.596;2022-09-16T09:18:41;1.75;;;1.70;;
19521;SDS011;9905;52.126;5.596;2022-09-16T09:21:19;1.88;;;1.77;;
19521;SDS011;9905;52.126;5.596;2022-09-16T09:23:56;1.70;;;1.58;;
19521;SDS011;9905;52.126;5.596;2022-09-16T09:26:34;2.30;;;2.20;;
19521;SDS011;9905;52.126;5.596;2022-09-16T09:29:18;1.52;;;1.52;;
19521;SDS011;9905;52.126;5.596;2022-09-16T09:32:03;2.25;;;1.60;;
19521;SDS011;9905;52.126;5.596;2022-09-16T09:34:43;1.77;;;1.50;;
19521;SDS011;9905;52.126;5.596;2022-09-16T09:37:21;1.52;;;1.52;;
19521;SDS011;9905;52.126;5.596;2022-09-16T09:40:02;1.85;;;1.70;;
19521;SDS011;9905;52.126;5.596;2022-09-16T09:42:35;3.15;;;1.80;;
19521;SDS011;9905;52.126;5.596;2022-09-16T09:45:10;1.75;;;1.67;;
19521;SDS011;9905;52.126;5.596;2022-09-16T09:47:48;1.75;;;1.65;;
19521;SDS011;9905;52.126;5.596;2022-09-16T09:50:21;1.98;;;1.67;;
19521;SDS011;9905;52.126;5.596;2022-09-16T09:52:58;2.03;;;1.80;;
19521;SDS011;9905;52.126;5.596;2022-09-16T09:55:32;1.80;;;1.70;;
19521;SDS011;9905;52.126;5.596;2022-09-16T09:58:04;2.22;;;1.90;;
19521;SDS011;9905;52.126;5.596;2022-09-16T10:00:43;1.90;;;1.80;;
19521;SDS011;9905;52.126;5.596;2022-09-16T10:03:11;1.67;;;1.58;;
19521;SDS011;9905;52.126;5.596;2022-09-16T10:05:40;1.70;;;1.60;;
19521;SDS011;9905;52.126;5.596;2022-09-16T10:08:11;1.60;;;1.60;;
19521;SDS011;9905;52.126;5.596;2022-09-16T10:10:45;1.50;;;1.40;;
19521;SDS011;9905;52.126;5.596;2022-09-16T10:13:14;1.50;;;1.50;;
19521;SDS011;9905;52.126;5.596;2022-09-16T10:15:42;1.52;;;1.52;;
19521;SDS011;9905;52.126;5.596;2022-09-16T10:18:11;1.77;;;1.73;;
19521;SDS011;9905;52.126;5.596;2022-09-16T10:20:41;1.55;;;1.52;;
19521;SDS011;9905;52.126;5.596;2022-09-16T10:23:09;1.92;;;1.83;;
19521;SDS011;9905;52.126;5.596;2022-09-16T10:25:38;1.85;;;1.75;;
19521;SDS011;9905;52.126;5.596;2022-09-16T10:28:16;1.30;;;1.30;;
19521;SDS011;9905;52.126;5.596;2022-09-16T10:30:47;2.08;;;1.58;;
19521;SDS011;9905;52.126;5.596;2022-09-16T10:33:18;1.50;;;1.40;;
19521;SDS011;9905;52.126;5.596;2022-09-16T10:35:52;1.85;;;1.75;;
19521;SDS011;9905;52.126;5.596;2022-09-16T10:38:22;1.50;;;1.48;;
19521;SDS011;9905;52.126;5.596;2022-09-16T10:40:52;1.42;;;1.33;;
19521;SDS011;9905;52.126;5.596;2022-09-16T10:43:21;1.30;;;1.30;;
19521;SDS011;9905;52.126;5.596;2022-09-16T10:45:51;1.40;;;1.40;;
19521;SDS011;9905;52.126;5.596;2022-09-16T10:48:19;1.27;;;1.27;;
19521;SDS011;9905;52.126;5.596;2022-09-16T10:50:52;1.45;;;1.33;;
19521;SDS011;9905;52.126;5.596;2022-09-16T10:53:20;1.70;;;1.70;;
19521;SDS011;9905;52.126;5.596;2022-09-16T10:55:57;1.63;;;1.52;;
19521;SDS011;9905;52.126;5.596;2022-09-16T10:58:25;1.60;;;1.60;;
19521;SDS011;9905;52.126;5.596;2022-09-16T11:00:57;1.58;;;1.45;;
19521;SDS011;9905;52.126;5.596;2022-09-16T11:07:00;1.50;;;1.50;;
19521;SDS011;9905;52.126;5.596;2022-09-16T11:09:43;1.70;;;1.70;;
19521;SDS011;9905;52.126;5.596;2022-09-16T11:12:28;1.35;;;1.35;;
19521;SDS011;9905;52.126;5.596;2022-09-16T11:15:13;1.40;;;1.40;;
19521;SDS011;9905;52.126;5.596;2022-09-16T11:17:51;1.40;;;1.40;;
19521;SDS011;9905;52.126;5.596;2022-09-16T11:20:34;1.40;;;1.40;;
19521;SDS011;9905;52.126;5.596;2022-09-16T11:23:17;1.10;;;1.10;;
19521;SDS011;9905;52.126;5.596;2022-09-16T11:25:56;1.30;;;1.30;;
19521;SDS011;9905;52.126;5.596;2022-09-16T11:28:33;1.27;;;1.23;;
19521;SDS011;9905;52.126;5.596;2022-09-16T11:31:17;1.20;;;1.17;;
19521;SDS011;9905;52.126;5.596;2022-09-16T11:33:58;1.13;;;1.10;;
19521;SDS011;9905;52.126;5.596;2022-09-16T11:36:43;1.80;;;1.70;;
19521;SDS011;9905;52.126;5.596;2022-09-16T11:39:25;1.60;;;1.40;;
19521;SDS011;9905;52.126;5.596;2022-09-16T11:42:04;1.55;;;1.33;;
19521;SDS011;9905;52.126;5.596;2022-09-16T11:44:41;2.20;;;1.38;;
19521;SDS011;9905;52.126;5.596;2022-09-16T11:47:18;1.48;;;1.40;;
19521;SDS011;9905;52.126;5.596;2022-09-16T11:50:05;1.25;;;1.20;;
19521;SDS011;9905;52.126;5.596;2022-09-16T11:52:51;1.60;;;1.48;;
19521;SDS011;9905;52.126;5.596;2022-09-16T11:55:33;2.08;;;1.50;;
19521;SDS011;9905;52.126;5.596;2022-09-16T11:58:11;1.60;;;1.50;;
19521;SDS011;9905;52.126;5.596;2022-09-16T12:00:53;1.40;;;1.25;;
19521;SDS011;9905;52.126;5.596;2022-09-16T12:03:25;1.77;;;1.63;;
19521;SDS011;9905;52.126;5.596;2022-09-16T12:05:57;1.95;;;1.30;;
19521;SDS011;9905;52.126;5.596;2022-09-16T12:08:30;1.92;;;1.45;;
19521;SDS011;9905;52.126;5.596;2022-09-16T12:11:07;2.80;;;1.38;;
19521;SDS011;9905;52.126;5.596;2022-09-16T12:13:44;1.75;;;1.40;;
19521;SDS011;9905;52.126;5.596;2022-09-16T12:16:15;1.27;;;1.20;;
19521;SDS011;9905;52.126;5.596;2022-09-16T12:18:47;3.20;;;1.40;;
19521;SDS011;9905;52.126;5.596;2022-09-16T12:21:19;1.33;;;1.27;;
19521;SDS011;9905;52.126;5.596;2022-09-16T12:23:54;1.85;;;1.70;;
19521;SDS011;9905;52.126;5.596;2022-09-16T12:26:25;1.42;;;1.33;;
19521;SDS011;9905;52.126;5.596;2022-09-16T12:28:55;1.20;;;1.20;;
19521;SDS011;9905;52.126;5.596;2022-09-16T12:31:25;2.28;;;1.55;;
19521;SDS011;9905;52.126;5.596;2022-09-16T12:33:59;2.42;;;1.40;;
19521;SDS011;9905;52.126;5.596;2022-09-16T12:36:31;1.60;;;1.50;;
19521;SDS011;9905;52.126;5.596;2022-09-16T12:39:01;3.60;;;1.42;;
19521;SDS011;9905;52.126;5.596;2022-09-16T12:41:37;1.85;;;1.50;;
19521;SDS011;9905;52.126;5.596;2022-09-16T12:44:24;1.50;;;1.40;;
19521;SDS011;9905;52.126;5.596;2022-09-16T12:47:26;3.15;;;1.40;;
19521;SDS011;9905;52.126;5.596;2022-09-16T12:50:23;2.53;;;1.73;;
19521;SDS011;9905;52.126;5.596;2022-09-16T12:56:22;2.95;;;1.45;;
19521;SDS011;9905;52.126;5.596;2022-09-16T12:59:11;1.63;;;1.52;;
19521;SDS011;9905;52.126;5.596;2022-09-16T13:01:50;2.30;;;1.75;;
19521;SDS011;9905;52.126;5.596;2022-09-16T13:04:22;3.20;;;1.70;;
19521;SDS011;9905;52.126;5.596;2022-09-16T13:06:55;1.60;;;1.50;;
19521;SDS011;9905;52.126;5.596;2022-09-16T13:09:26;2.28;;;2.05;;
19521;SDS011;9905;52.126;5.596;2022-09-16T13:11:58;1.77;;;1.60;;
19521;SDS011;9905;52.126;5.596;2022-09-16T13:14:27;2.15;;;1.65;;
19521;SDS011;9905;52.126;5.596;2022-09-16T13:16:58;2.15;;;1.33;;
19521;SDS011;9905;52.126;5.596;2022-09-16T13:19:28;2.08;;;1.50;;
19521;SDS011;9905;52.126;5.596;2022-09-16T13:22:10;2.08;;;1.88;;
19521;SDS011;9905;52.126;5.596;2022-09-16T13:24:44;1.50;;;1.45;;
19521;SDS011;9905;52.126;5.596;2022-09-16T13:27:24;3.45;;;1.65;;
19521;SDS011;9905;52.126;5.596;2022-09-16T13:30:04;4.72;;;1.55;;
19521;SDS011;9905;52.126;5.596;2022-09-16T13:32:55;2.33;;;1.60;;
19521;SDS011;9905;52.126;5.596;2022-09-16T13:35:40;1.88;;;1.73;;
19521;SDS011;9905;52.126;5.596;2022-09-16T13:38:11;2.38;;;1.50;;
19521;SDS011;9905;52.126;5.596;2022-09-16T13:40:52;2.53;;;2.22;;
19521;SDS011;9905;52.126;5.596;2022-09-16T13:43:29;2.05;;;1.45;;
19521;SDS011;9905;52.126;5.596;2022-09-16T13:46:03;2.95;;;1.63;;
19521;SDS011;9905;52.126;5.596;2022-09-16T13:48:36;3.83;;;1.80;;
19521;SDS011;9905;52.126;5.596;2022-09-16T13:51:08;3.85;;;1.73;;
19521;SDS011;9905;52.126;5.596;2022-09-16T13:53:42;2.17;;;1.70;;
19521;SDS011;9905;52.126;5.596;2022-09-16T13:56:18;1.77;;;1.50;;
19521;SDS011;9905;52.126;5.596;2022-09-16T13:59:09;1.45;;;1.33;;
19521;SDS011;9905;52.126;5.596;2022-09-16T14:01:57;1.20;;;1.10;;
19521;SDS011;9905;52.126;5.596;2022-09-16T14:04:38;1.30;;;1.30;;
19521;SDS011;9905;52.126;5.596;2022-09-16T14:07:19;2.45;;;1.40;;
19521;SDS011;9905;52.126;5.596;2022-09-16T14:09:54;3.80;;;1.50;;
19521;SDS011;9905;52.126;5.596;2022-09-16T14:12:29;2.55;;;1.42;;
19521;SDS011;9905;52.126;5.596;2022-09-16T14:15:03;1.50;;;1.40;;
19521;SDS011;9905;52.126;5.596;2022-09-16T14:17:33;2.13;;;1.33;;
19521;SDS011;9905;52.126;5.596;2022-09-16T14:20:04;2.22;;;1.50;;
19521;SDS011;9905;52.126;5.596;2022-09-16T14:22:35;2.35;;;1.50;;
19521;SDS011;9905;52.126;5.596;2022-09-16T14:25:02;4.82;;;1.80;;
19521;SDS011;9905;52.126;5.596;2022-09-16T14:27:32;1.95;;;1.30;;
19521;SDS011;9905;52.126;5.596;2022-09-16T14:30:04;4.45;;;1.70;;
19521;SDS011;9905;52.126;5.596;2022-09-16T14:32:32;3.15;;;1.80;;
19521;SDS011;9905;52.126;5.596;2022-09-16T14:35:02;2.03;;;1.20;;
19521;SDS011;9905;52.126;5.596;2022-09-16T14:37:35;2.15;;;1.27;;
19521;SDS011;9905;52.126;5.596;2022-09-16T14:40:05;3.53;;;1.50;;
19521;SDS011;9905;52.126;5.596;2022-09-16T14:42:38;2.50;;;1.42;;
19521;SDS011;9905;52.126;5.596;2022-09-16T14:45:13;1.13;;;1.08;;
19521;SDS011;9905;52.126;5.596;2022-09-16T14:47:41;1.40;;;1.15;;
19521;SDS011;9905;52.126;5.596;2022-09-16T14:50:10;1.63;;;1.30;;
19521;SDS011;9905;52.126;5.596;2022-09-16T14:52:39;1.20;;;1.10;;
19521;SDS011;9905;52.126;5.596;2022-09-16T14:55:06;1.35;;;1.20;;
19521;SDS011;9905;52.126;5.596;2022-09-16T14:57:40;1.10;;;1.10;;
19521;SDS011;9905;52.126;5.596;2022-09-16T15:00:11;1.70;;;1.13;;
19521;SDS011;9905;52.126;5.596;2022-09-16T15:02:41;1.40;;;1.27;;
19521;SDS011;9905;52.126;5.596;2022-09-16T15:05:14;1.40;;;1.13;;
19521;SDS011;9905;52.126;5.596;2022-09-16T15:07:46;1.73;;;1.40;;
19521;SDS011;9905;52.126;5.596;2022-09-16T15:10:17;2.63;;;1.70;;
19521;SDS011;9905;52.126;5.596;2022-09-16T15:12:48;3.63;;;1.73;;
19521;SDS011;9905;52.126;5.596;2022-09-16T15:15:18;1.50;;;1.40;;
19521;SDS011;9905;52.126;5.596;2022-09-16T15:17:50;3.08;;;1.50;;
19521;SDS011;9905;52.126;5.596;2022-09-16T15:20:19;6.82;;;2.30;;
19521;SDS011;9905;52.126;5.596;2022-09-16T15:22:47;1.80;;;1.70;;
19521;SDS011;9905;52.126;5.596;2022-09-16T15:25:18;3.45;;;1.65;;
19521;SDS011;9905;52.126;5.596;2022-09-16T15:27:48;5.72;;;1.75;;
19521;SDS011;9905;52.126;5.596;2022-09-16T15:30:19;2.72;;;1.70;;
19521;SDS011;9905;52.126;5.596;2022-09-16T15:32:48;2.53;;;1.52;;
19521;SDS011;9905;52.126;5.596;2022-09-16T15:35:18;4.82;;;2.13;;
19521;SDS011;9905;52.126;5.596;2022-09-16T15:37:48;2.53;;;1.50;;
19521;SDS011;9905;52.126;5.596;2022-09-16T15:43:11;3.45;;;1.65;;